sensor_id;sensor_type;location;lat;lon;timestamp;P1;durP1;ratioP1;P2;durP2;ratioP2
61756;SDS011;57225;61.460;24.060;2022-11-04T00:00:27;12.45;;;7.18;;
61756;SDS011;57225;61.460;24.060;2022-11-04T00:03:12;13.52;;;7.60;;
61756;SDS011;57225;61.460;24.060;2022-11-04T00:05:59;13.57;;;6.80;;
61756;SDS011;57225;61.460;24.060;2022-11-04T00:08:54;14.57;;;7.75;;
61756;SDS011;57225;61.460;24.060;2022-11-04T00:11:40;13.27;;;7.30;;
61756;SDS011;57225;61.460;24.060;2022-11-04T00:14:42;19.52;;;7.50;;
61756;SDS011;57225;61.460;24.060;2022-11-04T00:17:27;14.02;;;8.23;;
61756;SDS011;57225;61.460;24.060;2022-11-04T00:20:11;15.40;;;8.35;;
61756;SDS011;57225;61.460;24.060;2022-11-04T00:23:15;12.63;;;7.05;;
61756;SDS011;57225;61.460;24.060;2022-11-04T00:26:17;14.25;;;6.85;;
61756;SDS011;57225;61.460;24.060;2022-11-04T00:29:20;14.68;;;7.53;;
61756;SDS011;57225;61.460;24.060;2022-11-04T00:32:05;12.50;;;6.43;;
61756;SDS011;57225;61.460;24.060;2022-11-04T00:35:08;14.48;;;7.45;;
61756;SDS011;57225;61.460;24.060;2022-11-04T00:37:54;14.45;;;7.15;;
61756;SDS011;57225;61.460;24.060;2022-11-04T00:40:38;12.20;;;6.90;;
61756;SDS011;57225;61.460;24.060;2022-11-04T00:43:22;12.82;;;7.25;;
61756;SDS011;57225;61.460;24.060;2022-11-04T00:46:06;13.35;;;7.53;;
61756;SDS011;57225;61.460;24.060;2022-11-04T00:48:51;14.70;;;7.35;;
61756;SDS011;57225;61.460;24.060;2022-11-04T00:51:35;15.50;;;7.30;;
61756;SDS011;57225;61.460;24.060;2022-11-04T00:54:20;15.48;;;7.30;;
61756;SDS011;57225;61.460;24.060;2022-11-04T00:57:04;15.10;;;7.30;;
61756;SDS011;57225;61.460;24.060;2022-11-04T00:59:51;14.85;;;7.93;;
61756;SDS011;57225;61.460;24.060;2022-11-04T01:02:36;17.40;;;7.28;;
61756;SDS011;57225;61.460;24.060;2022-11-04T01:05:20;15.23;;;6.70;;
61756;SDS011;57225;61.460;24.060;2022-11-04T01:08:04;12.70;;;6.90;;
61756;SDS011;57225;61.460;24.060;2022-11-04T01:10:49;13.15;;;6.78;;
61756;SDS011;57225;61.460;24.060;2022-11-04T01:13:33;14.80;;;7.50;;
61756;SDS011;57225;61.460;24.060;2022-11-04T01:16:19;14.35;;;7.40;;
61756;SDS011;57225;61.460;24.060;2022-11-04T01:19:03;14.00;;;7.25;;
61756;SDS011;57225;61.460;24.060;2022-11-04T01:21:49;13.70;;;7.05;;
61756;SDS011;57225;61.460;24.060;2022-11-04T01:24:34;14.63;;;7.75;;
61756;SDS011;57225;61.460;24.060;2022-11-04T01:27:19;16.08;;;7.20;;
61756;SDS011;57225;61.460;24.060;2022-11-04T01:30:04;15.02;;;7.00;;
61756;SDS011;57225;61.460;24.060;2022-11-04T01:32:49;14.27;;;8.07;;
61756;SDS011;57225;61.460;24.060;2022-11-04T01:35:33;15.02;;;8.05;;
61756;SDS011;57225;61.460;24.060;2022-11-04T01:38:17;15.75;;;7.25;;
61756;SDS011;57225;61.460;24.060;2022-11-04T01:41:02;14.05;;;7.03;;
61756;SDS011;57225;61.460;24.060;2022-11-04T01:46:42;15.02;;;7.53;;
61756;SDS011;57225;61.460;24.060;2022-11-04T01:49:34;11.70;;;6.75;;
61756;SDS011;57225;61.460;24.060;2022-11-04T01:52:27;16.27;;;7.22;;
61756;SDS011;57225;61.460;24.060;2022-11-04T01:55:18;12.38;;;6.07;;
61756;SDS011;57225;61.460;24.060;2022-11-04T01:58:11;12.90;;;5.65;;
61756;SDS011;57225;61.460;24.060;2022-11-04T02:00:58;11.55;;;6.13;;
61756;SDS011;57225;61.460;24.060;2022-11-04T02:06:35;12.15;;;5.80;;
61756;SDS011;57225;61.460;24.060;2022-11-04T02:09:19;10.02;;;5.40;;
61756;SDS011;57225;61.460;24.060;2022-11-04T02:12:05;11.70;;;5.90;;
61756;SDS011;57225;61.460;24.060;2022-11-04T02:15:08;11.68;;;5.43;;
61756;SDS011;57225;61.460;24.060;2022-11-04T02:34:06;10.02;;;5.32;;
61756;SDS011;57225;61.460;24.060;2022-11-04T02:37:01;13.00;;;5.68;;
61756;SDS011;57225;61.460;24.060;2022-11-04T02:46:03;11.48;;;5.28;;
61756;SDS011;57225;61.460;24.060;2022-11-04T02:49:00;13.18;;;5.55;;
61756;SDS011;57225;61.460;24.060;2022-11-04T02:51:57;13.43;;;5.72;;
61756;SDS011;57225;61.460;24.060;2022-11-04T02:57:42;9.52;;;5.38;;
61756;SDS011;57225;61.460;24.060;2022-11-04T03:00:30;10.63;;;5.63;;
61756;SDS011;57225;61.460;24.060;2022-11-04T03:03:37;9.93;;;5.43;;
61756;SDS011;57225;61.460;24.060;2022-11-04T03:06:23;9.48;;;5.63;;
61756;SDS011;57225;61.460;24.060;2022-11-04T03:09:11;15.18;;;6.65;;
61756;SDS011;57225;61.460;24.060;2022-11-04T03:12:00;13.55;;;6.82;;
61756;SDS011;57225;61.460;24.060;2022-11-04T03:14:53;15.18;;;6.68;;
61756;SDS011;57225;61.460;24.060;2022-11-04T03:17:49;16.67;;;6.53;;
61756;SDS011;57225;61.460;24.060;2022-11-04T03:20:40;13.55;;;6.43;;
61756;SDS011;57225;61.460;24.060;2022-11-04T03:23:28;16.52;;;7.63;;
61756;SDS011;57225;61.460;24.060;2022-11-04T03:35:05;14.13;;;6.68;;
61756;SDS011;57225;61.460;24.060;2022-11-04T03:37:51;13.65;;;7.45;;
61756;SDS011;57225;61.460;24.060;2022-11-04T03:40:35;13.77;;;7.18;;
61756;SDS011;57225;61.460;24.060;2022-11-04T03:43:21;15.68;;;7.03;;
61756;SDS011;57225;61.460;24.060;2022-11-04T03:46:08;12.48;;;6.72;;
61756;SDS011;57225;61.460;24.060;2022-11-04T03:48:53;14.55;;;7.10;;
61756;SDS011;57225;61.460;24.060;2022-11-04T03:51:39;12.60;;;6.90;;
61756;SDS011;57225;61.460;24.060;2022-11-04T03:54:24;17.92;;;7.38;;
61756;SDS011;57225;61.460;24.060;2022-11-04T04:00:25;16.30;;;7.72;;
61756;SDS011;57225;61.460;24.060;2022-11-04T04:03:17;15.45;;;7.47;;
61756;SDS011;57225;61.460;24.060;2022-11-04T04:06:14;13.18;;;6.72;;
61756;SDS011;57225;61.460;24.060;2022-11-04T04:09:15;14.18;;;6.88;;
61756;SDS011;57225;61.460;24.060;2022-11-04T04:15:16;15.18;;;6.95;;
61756;SDS011;57225;61.460;24.060;2022-11-04T04:18:06;13.98;;;6.22;;
61756;SDS011;57225;61.460;24.060;2022-11-04T04:20:56;16.48;;;6.65;;
61756;SDS011;57225;61.460;24.060;2022-11-04T04:23:45;14.50;;;6.57;;
61756;SDS011;57225;61.460;24.060;2022-11-04T04:26:51;15.82;;;7.07;;
61756;SDS011;57225;61.460;24.060;2022-11-04T04:30:15;15.98;;;6.35;;
61756;SDS011;57225;61.460;24.060;2022-11-04T04:33:02;13.80;;;6.72;;
61756;SDS011;57225;61.460;24.060;2022-11-04T04:35:54;15.30;;;7.40;;
61756;SDS011;57225;61.460;24.060;2022-11-04T04:38:40;14.00;;;7.10;;
61756;SDS011;57225;61.460;24.060;2022-11-04T04:41:44;17.55;;;7.55;;
61756;SDS011;57225;61.460;24.060;2022-11-04T04:44:50;14.25;;;6.90;;
61756;SDS011;57225;61.460;24.060;2022-11-04T04:47:44;14.80;;;7.93;;
61756;SDS011;57225;61.460;24.060;2022-11-04T04:50:34;14.80;;;7.97;;
61756;SDS011;57225;61.460;24.060;2022-11-04T04:53:23;15.38;;;7.53;;
61756;SDS011;57225;61.460;24.060;2022-11-04T04:56:07;13.73;;;6.93;;
61756;SDS011;57225;61.460;24.060;2022-11-04T04:58:52;16.05;;;6.95;;
61756;SDS011;57225;61.460;24.060;2022-11-04T05:01:36;20.17;;;7.55;;
61756;SDS011;57225;61.460;24.060;2022-11-04T05:04:21;20.65;;;8.13;;
61756;SDS011;57225;61.460;24.060;2022-11-04T05:07:05;13.02;;;7.25;;
61756;SDS011;57225;61.460;24.060;2022-11-04T05:09:52;12.73;;;6.82;;
61756;SDS011;57225;61.460;24.060;2022-11-04T05:12:37;11.63;;;6.22;;
61756;SDS011;57225;61.460;24.060;2022-11-04T05:15:41;13.82;;;6.53;;
61756;SDS011;57225;61.460;24.060;2022-11-04T05:18:25;11.88;;;6.28;;
61756;SDS011;57225;61.460;24.060;2022-11-04T05:21:11;9.38;;;5.85;;
61756;SDS011;57225;61.460;24.060;2022-11-04T05:23:57;10.77;;;5.88;;
61756;SDS011;57225;61.460;24.060;2022-11-04T05:26:41;11.57;;;6.75;;
61756;SDS011;57225;61.460;24.060;2022-11-04T05:29:26;11.80;;;7.03;;
61756;SDS011;57225;61.460;24.060;2022-11-04T05:32:10;14.35;;;6.82;;
61756;SDS011;57225;61.460;24.060;2022-11-04T05:34:55;12.15;;;6.63;;
61756;SDS011;57225;61.460;24.060;2022-11-04T05:37:40;15.07;;;7.50;;
61756;SDS011;57225;61.460;24.060;2022-11-04T05:40:24;27.40;;;7.53;;
61756;SDS011;57225;61.460;24.060;2022-11-04T05:43:09;14.13;;;7.05;;
61756;SDS011;57225;61.460;24.060;2022-11-04T05:45:54;18.48;;;7.57;;
61756;SDS011;57225;61.460;24.060;2022-11-04T05:48:38;16.13;;;8.43;;
61756;SDS011;57225;61.460;24.060;2022-11-04T05:51:23;14.10;;;7.95;;
61756;SDS011;57225;61.460;24.060;2022-11-04T05:54:09;15.68;;;8.45;;
61756;SDS011;57225;61.460;24.060;2022-11-04T05:56:54;17.42;;;8.02;;
61756;SDS011;57225;61.460;24.060;2022-11-04T05:59:38;14.23;;;7.88;;
61756;SDS011;57225;61.460;24.060;2022-11-04T06:02:23;16.92;;;8.93;;
61756;SDS011;57225;61.460;24.060;2022-11-04T06:05:07;19.67;;;9.02;;
61756;SDS011;57225;61.460;24.060;2022-11-04T06:07:52;17.33;;;8.80;;
61756;SDS011;57225;61.460;24.060;2022-11-04T06:10:37;18.60;;;9.10;;
61756;SDS011;57225;61.460;24.060;2022-11-04T06:13:22;20.08;;;8.68;;
61756;SDS011;57225;61.460;24.060;2022-11-04T06:16:06;19.55;;;9.05;;
61756;SDS011;57225;61.460;24.060;2022-11-04T06:18:51;25.65;;;9.77;;
61756;SDS011;57225;61.460;24.060;2022-11-04T06:21:36;21.45;;;10.48;;
61756;SDS011;57225;61.460;24.060;2022-11-04T06:24:20;17.77;;;9.02;;
61756;SDS011;57225;61.460;24.060;2022-11-04T06:27:05;21.63;;;10.05;;
61756;SDS011;57225;61.460;24.060;2022-11-04T06:29:50;21.52;;;9.95;;
61756;SDS011;57225;61.460;24.060;2022-11-04T06:32:35;24.73;;;10.20;;
61756;SDS011;57225;61.460;24.060;2022-11-04T06:35:20;21.38;;;9.70;;
61756;SDS011;57225;61.460;24.060;2022-11-04T06:38:06;24.17;;;10.48;;
61756;SDS011;57225;61.460;24.060;2022-11-04T06:40:50;17.35;;;9.40;;
61756;SDS011;57225;61.460;24.060;2022-11-04T06:43:35;19.90;;;9.60;;
61756;SDS011;57225;61.460;24.060;2022-11-04T06:46:23;21.67;;;10.57;;
61756;SDS011;57225;61.460;24.060;2022-11-04T06:49:13;23.20;;;10.38;;
61756;SDS011;57225;61.460;24.060;2022-11-04T06:52:00;22.90;;;10.38;;
61756;SDS011;57225;61.460;24.060;2022-11-04T06:54:45;29.20;;;11.18;;
61756;SDS011;57225;61.460;24.060;2022-11-04T06:57:30;35.42;;;12.45;;
61756;SDS011;57225;61.460;24.060;2022-11-04T07:00:14;22.67;;;10.93;;
61756;SDS011;57225;61.460;24.060;2022-11-04T07:02:59;27.23;;;10.85;;
61756;SDS011;57225;61.460;24.060;2022-11-04T07:05:43;23.88;;;10.68;;
61756;SDS011;57225;61.460;24.060;2022-11-04T07:08:28;24.10;;;10.45;;
61756;SDS011;57225;61.460;24.060;2022-11-04T07:11:12;32.42;;;12.00;;
61756;SDS011;57225;61.460;24.060;2022-11-04T07:13:57;28.20;;;11.90;;
61756;SDS011;57225;61.460;24.060;2022-11-04T07:16:42;21.60;;;10.70;;
61756;SDS011;57225;61.460;24.060;2022-11-04T07:19:26;26.83;;;11.65;;
61756;SDS011;57225;61.460;24.060;2022-11-04T07:22:10;23.90;;;10.80;;
61756;SDS011;57225;61.460;24.060;2022-11-04T07:24:55;26.10;;;10.50;;
61756;SDS011;57225;61.460;24.060;2022-11-04T07:27:40;19.40;;;9.75;;
61756;SDS011;57225;61.460;24.060;2022-11-04T07:30:24;21.17;;;9.75;;
61756;SDS011;57225;61.460;24.060;2022-11-04T07:33:09;25.40;;;9.57;;
61756;SDS011;57225;61.460;24.060;2022-11-04T07:35:54;24.48;;;10.23;;
61756;SDS011;57225;61.460;24.060;2022-11-04T07:38:38;26.25;;;10.25;;
61756;SDS011;57225;61.460;24.060;2022-11-04T07:41:22;22.83;;;9.75;;
61756;SDS011;57225;61.460;24.060;2022-11-04T07:44:09;24.90;;;10.90;;
61756;SDS011;57225;61.460;24.060;2022-11-04T07:46:54;22.92;;;10.45;;
61756;SDS011;57225;61.460;24.060;2022-11-04T07:49:39;18.73;;;9.20;;
61756;SDS011;57225;61.460;24.060;2022-11-04T07:52:24;17.33;;;9.43;;
61756;SDS011;57225;61.460;24.060;2022-11-04T07:55:08;16.88;;;9.40;;
61756;SDS011;57225;61.460;24.060;2022-11-04T07:57:53;24.77;;;10.50;;
61756;SDS011;57225;61.460;24.060;2022-11-04T08:00:38;21.13;;;10.40;;
61756;SDS011;57225;61.460;24.060;2022-11-04T08:03:22;19.63;;;9.50;;
61756;SDS011;57225;61.460;24.060;2022-11-04T08:06:07;19.23;;;9.85;;
61756;SDS011;57225;61.460;24.060;2022-11-04T08:08:53;18.67;;;9.52;;
61756;SDS011;57225;61.460;24.060;2022-11-04T08:11:37;18.83;;;9.65;;
61756;SDS011;57225;61.460;24.060;2022-11-04T08:14:21;17.55;;;9.55;;
61756;SDS011;57225;61.460;24.060;2022-11-04T08:17:06;17.33;;;8.95;;
61756;SDS011;57225;61.460;24.060;2022-11-04T08:19:50;18.40;;;8.68;;
61756;SDS011;57225;61.460;24.060;2022-11-04T08:22:35;17.67;;;8.40;;
61756;SDS011;57225;61.460;24.060;2022-11-04T08:25:19;16.05;;;8.90;;
61756;SDS011;57225;61.460;24.060;2022-11-04T08:28:04;15.95;;;8.68;;
61756;SDS011;57225;61.460;24.060;2022-11-04T08:30:52;18.33;;;8.77;;
61756;SDS011;57225;61.460;24.060;2022-11-04T08:33:49;16.55;;;8.88;;
61756;SDS011;57225;61.460;24.060;2022-11-04T08:36:34;17.80;;;8.23;;
61756;SDS011;57225;61.460;24.060;2022-11-04T08:39:20;19.13;;;8.15;;
61756;SDS011;57225;61.460;24.060;2022-11-04T08:42:05;17.38;;;9.10;;
61756;SDS011;57225;61.460;24.060;2022-11-04T08:44:50;18.65;;;8.30;;
61756;SDS011;57225;61.460;24.060;2022-11-04T08:47:34;17.73;;;9.02;;
61756;SDS011;57225;61.460;24.060;2022-11-04T08:50:19;19.17;;;9.10;;
61756;SDS011;57225;61.460;24.060;2022-11-04T08:53:05;15.20;;;8.38;;
61756;SDS011;57225;61.460;24.060;2022-11-04T08:55:49;23.98;;;9.25;;
61756;SDS011;57225;61.460;24.060;2022-11-04T08:58:34;19.55;;;8.90;;
61756;SDS011;57225;61.460;24.060;2022-11-04T09:01:19;19.27;;;9.13;;
61756;SDS011;57225;61.460;24.060;2022-11-04T09:04:04;18.25;;;9.38;;
61756;SDS011;57225;61.460;24.060;2022-11-04T09:06:48;18.23;;;9.15;;
61756;SDS011;57225;61.460;24.060;2022-11-04T09:09:34;22.05;;;8.65;;
61756;SDS011;57225;61.460;24.060;2022-11-04T09:12:19;21.25;;;8.75;;
61756;SDS011;57225;61.460;24.060;2022-11-04T09:15:04;16.67;;;8.55;;
61756;SDS011;57225;61.460;24.060;2022-11-04T09:17:49;16.40;;;7.60;;
61756;SDS011;57225;61.460;24.060;2022-11-04T09:20:34;18.42;;;7.80;;
61756;SDS011;57225;61.460;24.060;2022-11-04T09:23:21;20.13;;;8.57;;
61756;SDS011;57225;61.460;24.060;2022-11-04T09:26:09;16.70;;;7.78;;
61756;SDS011;57225;61.460;24.060;2022-11-04T09:28:56;18.63;;;7.85;;
61756;SDS011;57225;61.460;24.060;2022-11-04T09:31:41;15.38;;;8.25;;
61756;SDS011;57225;61.460;24.060;2022-11-04T09:34:25;17.25;;;8.30;;
61756;SDS011;57225;61.460;24.060;2022-11-04T09:37:10;16.83;;;8.07;;
61756;SDS011;57225;61.460;24.060;2022-11-04T09:39:54;16.15;;;6.70;;
61756;SDS011;57225;61.460;24.060;2022-11-04T09:45:46;15.82;;;8.07;;
61756;SDS011;57225;61.460;24.060;2022-11-04T09:48:33;17.90;;;8.85;;
61756;SDS011;57225;61.460;24.060;2022-11-04T09:51:23;18.95;;;10.25;;
61756;SDS011;57225;61.460;24.060;2022-11-04T09:54:13;19.48;;;8.90;;
61756;SDS011;57225;61.460;24.060;2022-11-04T09:57:18;17.35;;;7.90;;
61756;SDS011;57225;61.460;24.060;2022-11-04T10:00:04;19.35;;;8.00;;
61756;SDS011;57225;61.460;24.060;2022-11-04T10:24:19;15.52;;;6.75;;
61756;SDS011;57225;61.460;24.060;2022-11-04T10:27:16;16.27;;;7.47;;
61756;SDS011;57225;61.460;24.060;2022-11-04T10:30:14;14.35;;;7.55;;
61756;SDS011;57225;61.460;24.060;2022-11-04T10:33:04;22.58;;;8.10;;
61756;SDS011;57225;61.460;24.060;2022-11-04T10:36:15;13.10;;;7.18;;
61756;SDS011;57225;61.460;24.060;2022-11-04T10:39:02;13.32;;;6.18;;
61756;SDS011;57225;61.460;24.060;2022-11-04T10:41:53;11.40;;;5.57;;
61756;SDS011;57225;61.460;24.060;2022-11-04T10:44:37;10.77;;;5.47;;
61756;SDS011;57225;61.460;24.060;2022-11-04T10:53:37;13.73;;;6.38;;
61756;SDS011;57225;61.460;24.060;2022-11-04T10:56:34;19.45;;;8.07;;
61756;SDS011;57225;61.460;24.060;2022-11-04T10:59:46;19.60;;;9.02;;
61756;SDS011;57225;61.460;24.060;2022-11-04T11:05:24;23.60;;;10.05;;
61756;SDS011;57225;61.460;24.060;2022-11-04T11:08:14;15.82;;;7.30;;
61756;SDS011;57225;61.460;24.060;2022-11-04T11:11:11;25.83;;;10.85;;
61756;SDS011;57225;61.460;24.060;2022-11-04T11:13:58;47.03;;;19.15;;
61756;SDS011;57225;61.460;24.060;2022-11-04T11:16:41;90.53;;;37.72;;
61756;SDS011;57225;61.460;24.060;2022-11-04T11:19:28;91.05;;;36.17;;
61756;SDS011;57225;61.460;24.060;2022-11-04T11:22:26;68.38;;;27.73;;
61756;SDS011;57225;61.460;24.060;2022-11-04T11:25:25;23.13;;;9.45;;
61756;SDS011;57225;61.460;24.060;2022-11-04T11:28:19;18.63;;;7.78;;
61756;SDS011;57225;61.460;24.060;2022-11-04T11:31:07;10.43;;;5.78;;
61756;SDS011;57225;61.460;24.060;2022-11-04T11:33:59;17.23;;;8.15;;
61756;SDS011;57225;61.460;24.060;2022-11-04T11:36:48;36.45;;;16.45;;
61756;SDS011;57225;61.460;24.060;2022-11-04T11:39:32;28.80;;;12.13;;
61756;SDS011;57225;61.460;24.060;2022-11-04T11:42:18;27.75;;;11.80;;
61756;SDS011;57225;61.460;24.060;2022-11-04T11:45:03;29.90;;;12.40;;
61756;SDS011;57225;61.460;24.060;2022-11-04T11:47:59;14.00;;;6.63;;
61756;SDS011;57225;61.460;24.060;2022-11-04T11:50:52;8.93;;;4.93;;
61756;SDS011;57225;61.460;24.060;2022-11-04T11:53:40;30.40;;;13.88;;
61756;SDS011;57225;61.460;24.060;2022-11-04T11:56:47;54.13;;;23.45;;
61756;SDS011;57225;61.460;24.060;2022-11-04T12:02:45;21.52;;;7.85;;
61756;SDS011;57225;61.460;24.060;2022-11-04T12:05:38;14.32;;;5.88;;
61756;SDS011;57225;61.460;24.060;2022-11-04T12:14:50;11.95;;;4.50;;
61756;SDS011;57225;61.460;24.060;2022-11-04T12:27:08;5.68;;;3.10;;
61756;SDS011;57225;61.460;24.060;2022-11-04T12:30:15;10.25;;;3.85;;
61756;SDS011;57225;61.460;24.060;2022-11-04T12:33:20;7.40;;;2.53;;
61756;SDS011;57225;61.460;24.060;2022-11-04T12:39:53;6.93;;;2.53;;
61756;SDS011;57225;61.460;24.060;2022-11-04T12:43:03;5.22;;;2.60;;
61756;SDS011;57225;61.460;24.060;2022-11-04T12:46:11;6.25;;;2.60;;
61756;SDS011;57225;61.460;24.060;2022-11-04T12:49:26;7.10;;;2.50;;
61756;SDS011;57225;61.460;24.060;2022-11-04T13:01:07;11.05;;;2.67;;
61756;SDS011;57225;61.460;24.060;2022-11-04T13:04:08;11.30;;;3.08;;
61756;SDS011;57225;61.460;24.060;2022-11-04T13:06:58;13.90;;;3.33;;
61756;SDS011;57225;61.460;24.060;2022-11-04T13:09:51;5.07;;;2.63;;
61756;SDS011;57225;61.460;24.060;2022-11-04T13:12:39;11.52;;;3.05;;
61756;SDS011;57225;61.460;24.060;2022-11-04T13:15:27;9.52;;;2.60;;
61756;SDS011;57225;61.460;24.060;2022-11-04T13:18:17;10.55;;;2.70;;
61756;SDS011;57225;61.460;24.060;2022-11-04T13:21:05;10.55;;;3.00;;
61756;SDS011;57225;61.460;24.060;2022-11-04T13:23:57;7.63;;;2.70;;
61756;SDS011;57225;61.460;24.060;2022-11-04T13:26:47;8.00;;;2.97;;
61756;SDS011;57225;61.460;24.060;2022-11-04T13:29:34;10.13;;;2.97;;
61756;SDS011;57225;61.460;24.060;2022-11-04T13:32:22;10.13;;;3.15;;
61756;SDS011;57225;61.460;24.060;2022-11-04T13:35:29;24.05;;;3.50;;
61756;SDS011;57225;61.460;24.060;2022-11-04T13:38:23;4.88;;;2.50;;
61756;SDS011;57225;61.460;24.060;2022-11-04T13:44:29;10.55;;;2.95;;
61756;SDS011;57225;61.460;24.060;2022-11-04T13:47:21;10.10;;;2.80;;
61756;SDS011;57225;61.460;24.060;2022-11-04T13:50:26;13.15;;;3.28;;
61756;SDS011;57225;61.460;24.060;2022-11-04T13:53:18;8.23;;;2.70;;
61756;SDS011;57225;61.460;24.060;2022-11-04T13:56:02;10.85;;;2.70;;
61756;SDS011;57225;61.460;24.060;2022-11-04T13:58:50;6.78;;;2.58;;
61756;SDS011;57225;61.460;24.060;2022-11-04T14:04:25;11.32;;;3.40;;
61756;SDS011;57225;61.460;24.060;2022-11-04T14:07:14;7.30;;;3.15;;
61756;SDS011;57225;61.460;24.060;2022-11-04T14:10:00;12.20;;;3.88;;
61756;SDS011;57225;61.460;24.060;2022-11-04T14:12:46;20.83;;;3.85;;
61756;SDS011;57225;61.460;24.060;2022-11-04T14:18:47;9.15;;;3.63;;
61756;SDS011;57225;61.460;24.060;2022-11-04T14:21:32;8.25;;;3.28;;
61756;SDS011;57225;61.460;24.060;2022-11-04T14:24:54;11.45;;;3.17;;
61756;SDS011;57225;61.460;24.060;2022-11-04T14:27:41;6.93;;;3.38;;
61756;SDS011;57225;61.460;24.060;2022-11-04T14:33:21;12.15;;;3.92;;
61756;SDS011;57225;61.460;24.060;2022-11-04T14:39:18;9.27;;;3.50;;
61756;SDS011;57225;61.460;24.060;2022-11-04T14:42:07;21.08;;;4.28;;
61756;SDS011;57225;61.460;24.060;2022-11-04T14:47:40;6.78;;;3.65;;
61756;SDS011;57225;61.460;24.060;2022-11-04T14:50:26;20.05;;;4.63;;
61756;SDS011;57225;61.460;24.060;2022-11-04T14:53:13;14.80;;;3.88;;
61756;SDS011;57225;61.460;24.060;2022-11-04T14:56:19;13.45;;;4.07;;
61756;SDS011;57225;61.460;24.060;2022-11-04T14:59:05;10.40;;;4.03;;
61756;SDS011;57225;61.460;24.060;2022-11-04T15:01:50;12.82;;;4.00;;
61756;SDS011;57225;61.460;24.060;2022-11-04T15:04:35;10.73;;;3.95;;
61756;SDS011;57225;61.460;24.060;2022-11-04T15:07:38;15.90;;;3.50;;
61756;SDS011;57225;61.460;24.060;2022-11-04T15:10:27;17.98;;;4.30;;
61756;SDS011;57225;61.460;24.060;2022-11-04T15:13:11;8.23;;;3.45;;
61756;SDS011;57225;61.460;24.060;2022-11-04T15:15:55;10.23;;;3.38;;
61756;SDS011;57225;61.460;24.060;2022-11-04T15:18:41;6.75;;;3.03;;
61756;SDS011;57225;61.460;24.060;2022-11-04T15:21:25;9.00;;;3.63;;
61756;SDS011;57225;61.460;24.060;2022-11-04T15:24:13;12.82;;;3.40;;
61756;SDS011;57225;61.460;24.060;2022-11-04T15:27:03;15.52;;;4.25;;
61756;SDS011;57225;61.460;24.060;2022-11-04T15:30:00;7.22;;;4.30;;
61756;SDS011;57225;61.460;24.060;2022-11-04T15:32:58;15.43;;;3.97;;
61756;SDS011;57225;61.460;24.060;2022-11-04T15:35:44;8.60;;;3.65;;
61756;SDS011;57225;61.460;24.060;2022-11-04T15:38:29;6.15;;;3.50;;
61756;SDS011;57225;61.460;24.060;2022-11-04T15:41:15;14.45;;;4.60;;
61756;SDS011;57225;61.460;24.060;2022-11-04T15:44:32;20.25;;;4.35;;
61756;SDS011;57225;61.460;24.060;2022-11-04T15:50:13;11.57;;;3.65;;
61756;SDS011;57225;61.460;24.060;2022-11-04T15:53:04;19.20;;;4.40;;
61756;SDS011;57225;61.460;24.060;2022-11-04T15:55:51;14.30;;;4.88;;
61756;SDS011;57225;61.460;24.060;2022-11-04T15:58:36;16.20;;;5.45;;
61756;SDS011;57225;61.460;24.060;2022-11-04T16:01:24;11.98;;;3.92;;
61756;SDS011;57225;61.460;24.060;2022-11-04T16:04:11;13.45;;;4.50;;
61756;SDS011;57225;61.460;24.060;2022-11-04T16:07:17;12.48;;;6.30;;
61756;SDS011;57225;61.460;24.060;2022-11-04T16:18:56;10.48;;;3.47;;
61756;SDS011;57225;61.460;24.060;2022-11-04T16:21:41;12.10;;;4.43;;
61756;SDS011;57225;61.460;24.060;2022-11-04T16:24:26;7.60;;;3.60;;
61756;SDS011;57225;61.460;24.060;2022-11-04T16:27:17;14.43;;;4.60;;
61756;SDS011;57225;61.460;24.060;2022-11-04T16:30:07;16.30;;;4.18;;
61756;SDS011;57225;61.460;24.060;2022-11-04T16:32:53;13.75;;;4.32;;
61756;SDS011;57225;61.460;24.060;2022-11-04T16:35:49;14.95;;;3.80;;
61756;SDS011;57225;61.460;24.060;2022-11-04T16:38:34;13.55;;;4.20;;
61756;SDS011;57225;61.460;24.060;2022-11-04T16:41:18;11.98;;;3.97;;
61756;SDS011;57225;61.460;24.060;2022-11-04T16:44:03;13.18;;;4.35;;
61756;SDS011;57225;61.460;24.060;2022-11-04T16:46:48;10.07;;;4.03;;
61756;SDS011;57225;61.460;24.060;2022-11-04T16:49:32;12.90;;;4.20;;
61756;SDS011;57225;61.460;24.060;2022-11-04T16:52:19;14.25;;;4.35;;
61756;SDS011;57225;61.460;24.060;2022-11-04T16:55:08;15.88;;;5.75;;
61756;SDS011;57225;61.460;24.060;2022-11-04T16:57:55;14.25;;;6.43;;
61756;SDS011;57225;61.460;24.060;2022-11-04T17:00:43;15.80;;;4.68;;
61756;SDS011;57225;61.460;24.060;2022-11-04T17:03:27;13.43;;;4.28;;
61756;SDS011;57225;61.460;24.060;2022-11-04T17:06:12;7.10;;;3.53;;
61756;SDS011;57225;61.460;24.060;2022-11-04T17:08:58;9.40;;;3.67;;
61756;SDS011;57225;61.460;24.060;2022-11-04T17:11:42;12.48;;;3.63;;
61756;SDS011;57225;61.460;24.060;2022-11-04T17:14:26;16.90;;;4.85;;
61756;SDS011;57225;61.460;24.060;2022-11-04T17:17:11;7.95;;;4.05;;
61756;SDS011;57225;61.460;24.060;2022-11-04T17:19:55;7.85;;;3.78;;
61756;SDS011;57225;61.460;24.060;2022-11-04T17:22:40;18.00;;;3.70;;
61756;SDS011;57225;61.460;24.060;2022-11-04T17:25:26;14.85;;;3.90;;
61756;SDS011;57225;61.460;24.060;2022-11-04T17:28:12;9.63;;;4.07;;
61756;SDS011;57225;61.460;24.060;2022-11-04T17:30:56;9.77;;;3.30;;
61756;SDS011;57225;61.460;24.060;2022-11-04T17:33:41;7.85;;;3.40;;
61756;SDS011;57225;61.460;24.060;2022-11-04T17:36:25;6.22;;;3.33;;
61756;SDS011;57225;61.460;24.060;2022-11-04T17:39:09;8.75;;;3.35;;
61756;SDS011;57225;61.460;24.060;2022-11-04T17:41:54;7.43;;;3.33;;
61756;SDS011;57225;61.460;24.060;2022-11-04T17:44:57;5.38;;;2.92;;
61756;SDS011;57225;61.460;24.060;2022-11-04T17:47:41;13.93;;;3.78;;
61756;SDS011;57225;61.460;24.060;2022-11-04T17:50:25;9.45;;;3.60;;
61756;SDS011;57225;61.460;24.060;2022-11-04T17:53:10;10.50;;;3.78;;
61756;SDS011;57225;61.460;24.060;2022-11-04T17:55:54;18.17;;;3.90;;
61756;SDS011;57225;61.460;24.060;2022-11-04T17:58:38;8.70;;;3.20;;
61756;SDS011;57225;61.460;24.060;2022-11-04T18:01:23;6.03;;;2.97;;
61756;SDS011;57225;61.460;24.060;2022-11-04T18:04:10;8.73;;;2.72;;
61756;SDS011;57225;61.460;24.060;2022-11-04T18:07:00;6.82;;;2.55;;
61756;SDS011;57225;61.460;24.060;2022-11-04T18:09:44;7.90;;;2.63;;
61756;SDS011;57225;61.460;24.060;2022-11-04T18:12:29;8.27;;;2.65;;
61756;SDS011;57225;61.460;24.060;2022-11-04T18:15:19;7.28;;;2.60;;
61756;SDS011;57225;61.460;24.060;2022-11-04T18:18:04;8.63;;;3.00;;
61756;SDS011;57225;61.460;24.060;2022-11-04T18:20:48;4.35;;;2.40;;
61756;SDS011;57225;61.460;24.060;2022-11-04T18:23:33;5.90;;;2.38;;
61756;SDS011;57225;61.460;24.060;2022-11-04T18:26:17;10.25;;;2.55;;
61756;SDS011;57225;61.460;24.060;2022-11-04T18:29:02;9.48;;;2.65;;
61756;SDS011;57225;61.460;24.060;2022-11-04T18:31:47;6.80;;;2.70;;
61756;SDS011;57225;61.460;24.060;2022-11-04T18:34:32;7.47;;;3.13;;
61756;SDS011;57225;61.460;24.060;2022-11-04T18:37:17;8.07;;;3.40;;
61756;SDS011;57225;61.460;24.060;2022-11-04T18:40:03;9.43;;;3.50;;
61756;SDS011;57225;61.460;24.060;2022-11-04T18:42:48;10.25;;;3.53;;
61756;SDS011;57225;61.460;24.060;2022-11-04T18:45:34;7.55;;;3.58;;
61756;SDS011;57225;61.460;24.060;2022-11-04T18:48:19;10.32;;;3.80;;